createdAt,value
2022-10-07T00:04:02.364Z,4.30
2022-10-07T00:08:57.069Z,4.57
2022-10-07T00:13:54.011Z,4.20
2022-10-07T00:18:48.438Z,4.18
2022-10-07T00:23:43.198Z,5.05
2022-10-07T00:28:38.769Z,4.65
2022-10-07T00:33:34.570Z,4.40
2022-10-07T00:38:28.336Z,4.00
2022-10-07T00:43:29.609Z,4.15
2022-10-07T00:48:31.053Z,4.28
2022-10-07T00:53:27.028Z,3.75
2022-10-07T00:58:20.370Z,4.15
2022-10-07T01:03:15.130Z,3.75
2022-10-07T01:08:10.656Z,3.80
2022-10-07T01:13:15.163Z,3.40
2022-10-07T01:18:18.762Z,3.88
2022-10-07T01:23:53.041Z,3.80
2022-10-07T01:28:53.734Z,3.83
2022-10-07T01:33:50.360Z,3.93
2022-10-07T01:38:52.257Z,4.00
2022-10-07T01:43:48.398Z,3.75
2022-10-07T01:48:41.587Z,3.72
2022-10-07T01:53:51.829Z,3.80
2022-10-07T01:59:18.813Z,3.75
2022-10-07T02:04:38.812Z,3.75
2022-10-07T02:09:38.578Z,3.83
2022-10-07T02:14:41.336Z,3.60
2022-10-07T02:19:40.941Z,4.40
2022-10-07T02:24:38.886Z,3.97
2022-10-07T02:29:38.472Z,4.18
2022-10-07T02:34:34.990Z,3.63
2022-10-07T02:39:29.313Z,4.30
2022-10-07T02:44:36.131Z,4.60
2022-10-07T02:49:32.230Z,4.13
2022-10-07T02:54:34.716Z,4.22
2022-10-07T02:59:30.147Z,4.68
2022-10-07T03:04:25.161Z,4.68
2022-10-07T03:09:18.424Z,4.15
2022-10-07T03:14:11.802Z,4.68
2022-10-07T03:19:05.193Z,4.63
2022-10-07T03:24:04.698Z,4.88
2022-10-07T03:28:58.026Z,4.32
2022-10-07T03:33:51.237Z,4.40
2022-10-07T03:38:44.591Z,3.67
2022-10-07T03:43:39.213Z,4.47
2022-10-07T03:48:45.539Z,4.60
2022-10-07T03:53:40.320Z,4.45
2022-10-07T03:58:33.923Z,4.55
2022-10-07T04:03:28.528Z,4.55
2022-10-07T04:08:21.707Z,5.03
2022-10-07T04:13:14.989Z,5.05
2022-10-07T04:18:08.279Z,5.00
2022-10-07T04:23:03.222Z,4.47
2022-10-07T04:27:57.865Z,4.78
2022-10-07T04:32:51.926Z,4.97
2022-10-07T04:37:45.692Z,4.40
2022-10-07T04:42:57.954Z,4.55
2022-10-07T04:47:51.504Z,5.10
2022-10-07T04:52:45.153Z,4.68
2022-10-07T04:57:38.438Z,5.20
2022-10-07T05:02:33.127Z,4.70
2022-10-07T05:07:26.652Z,4.68
2022-10-07T05:12:19.954Z,6.05
2022-10-07T05:17:14.138Z,6.45
2022-10-07T05:22:08.957Z,6.15
2022-10-07T05:27:02.324Z,6.85
2022-10-07T05:31:55.704Z,6.72
2022-10-07T05:36:48.998Z,6.85
2022-10-07T05:41:45.522Z,8.13
2022-10-07T05:46:40.210Z,7.75
2022-10-07T05:51:33.482Z,6.43
2022-10-07T05:56:26.818Z,8.48
2022-10-07T06:01:27.110Z,9.10
2022-10-07T06:06:21.306Z,9.40
2022-10-07T06:11:34.982Z,9.38
2022-10-07T06:16:30.192Z,8.73
2022-10-07T06:21:28.211Z,10.85
2022-10-07T06:26:22.847Z,10.05
2022-10-07T06:31:22.321Z,8.77
2022-10-07T06:36:17.171Z,10.43
2022-10-07T06:41:11.043Z,11.02
2022-10-07T06:46:06.731Z,9.25
2022-10-07T06:51:03.275Z,8.85
2022-10-07T06:55:59.078Z,10.98
2022-10-07T07:00:52.892Z,10.05
2022-10-07T07:05:49.754Z,10.63
2022-10-07T07:10:46.436Z,11.07
2022-10-07T07:15:42.054Z,11.63
2022-10-07T07:20:37.318Z,11.15
2022-10-07T07:25:32.035Z,11.65
2022-10-07T07:30:25.266Z,12.90
2022-10-07T07:35:19.996Z,13.02
2022-10-07T07:40:13.431Z,13.23
2022-10-07T08:01:26.669Z,13.57
2022-10-07T09:00:12.542Z,15.32
2022-10-07T09:11:27.663Z,15.82
2022-10-07T09:43:57.336Z,11.32
2022-10-07T09:54:57.876Z,12.05
2022-10-07T09:59:51.237Z,13.30
2022-10-07T10:04:52.645Z,12.55
2022-10-07T10:09:51.760Z,12.27
2022-10-07T10:14:49.883Z,11.38
2022-10-07T10:19:43.140Z,11.15
2022-10-07T10:25:06.855Z,13.35
2022-10-07T10:30:06.633Z,12.73
2022-10-07T10:35:14.914Z,12.77
2022-10-07T10:40:27.165Z,12.38
2022-10-07T10:45:36.209Z,13.10
2022-10-07T10:50:41.677Z,13.25
2022-10-07T10:56:17.311Z,12.15
2022-10-07T11:01:30.589Z,11.18
2022-10-07T11:06:26.681Z,13.20
2022-10-07T11:11:24.299Z,13.80
2022-10-07T11:16:24.161Z,12.43
2022-10-07T11:21:25.964Z,13.85
2022-10-07T11:26:34.473Z,13.93
2022-10-07T11:31:36.798Z,14.85
2022-10-07T11:36:52.636Z,14.32
2022-10-07T11:41:59.984Z,14.13
2022-10-07T11:46:58.006Z,13.85
2022-10-07T11:52:00.477Z,12.60
2022-10-07T11:56:59.468Z,12.95
2022-10-07T12:01:53.630Z,13.73
2022-10-07T12:07:50.528Z,13.80
2022-10-07T12:12:55.255Z,13.38
2022-10-07T12:17:56.237Z,13.15
2022-10-07T12:23:49.950Z,13.60
2022-10-07T12:33:58.777Z,13.48
2022-10-07T12:39:39.347Z,13.38
2022-10-07T12:44:51.307Z,13.50
2022-10-07T12:49:50.677Z,12.73
2022-10-07T12:54:53.750Z,13.45
2022-10-07T13:00:03.703Z,11.75
2022-10-07T13:05:43.686Z,14.48
2022-10-07T13:11:46.895Z,13.82
2022-10-07T13:16:50.697Z,14.55
2022-10-07T13:21:56.683Z,12.95
2022-10-07T13:26:50.260Z,12.30
2022-10-07T13:31:43.723Z,12.65
2022-10-07T13:36:44.718Z,13.88
2022-10-07T13:41:42.525Z,14.25
2022-10-07T13:46:42.193Z,13.45
2022-10-07T13:51:56.162Z,12.85
2022-10-07T13:56:50.564Z,12.75
2022-10-07T14:01:44.240Z,12.20
2022-10-07T14:06:48.337Z,14.60
2022-10-07T14:11:43.580Z,13.10
2022-10-07T14:16:38.149Z,13.82
2022-10-07T14:21:34.935Z,13.20
2022-10-07T14:26:46.075Z,12.95
2022-10-07T14:31:56.691Z,12.30
2022-10-07T14:37:08.088Z,13.45
2022-10-07T14:42:03.548Z,13.75
2022-10-07T14:47:05.642Z,14.85
2022-10-07T14:51:59.618Z,13.63
2022-10-07T14:56:52.896Z,14.77
2022-10-07T15:01:47.976Z,14.85
2022-10-07T15:06:41.358Z,15.30
2022-10-07T15:11:35.981Z,14.60
2022-10-07T15:16:29.886Z,14.43
2022-10-07T15:21:25.943Z,14.80
2022-10-07T15:26:21.325Z,13.18
2022-10-07T15:31:14.623Z,13.90
2022-10-07T15:36:08.790Z,14.20
2022-10-07T15:41:03.914Z,14.98
2022-10-07T15:45:58.918Z,14.30
2022-10-07T15:50:55.022Z,13.00
2022-10-07T15:55:52.966Z,14.30
2022-10-07T16:00:58.710Z,13.07
2022-10-07T16:05:58.219Z,13.65
2022-10-07T16:10:51.431Z,14.55
2022-10-07T16:15:45.612Z,14.75
2022-10-07T16:20:41.021Z,13.98
2022-10-07T16:25:36.908Z,13.82
2022-10-07T16:30:43.160Z,14.32
2022-10-07T16:35:36.407Z,13.82
2022-10-07T16:40:34.900Z,13.23
2022-10-07T16:45:28.341Z,13.65
2022-10-07T16:50:21.746Z,13.43
2022-10-07T16:55:15.351Z,13.68
2022-10-07T17:00:12.367Z,15.68
2022-10-07T17:05:06.871Z,12.40
2022-10-07T17:10:00.155Z,13.70
2022-10-07T17:14:53.414Z,14.80
2022-10-07T17:19:48.099Z,13.63
2022-10-07T17:24:41.734Z,14.07
2022-10-07T17:29:36.123Z,14.95
2022-10-07T17:34:29.566Z,14.90
2022-10-07T17:39:24.304Z,13.98
2022-10-07T17:44:17.765Z,15.38
2022-10-07T17:49:14.254Z,14.30
2022-10-07T17:54:08.197Z,15.23
2022-10-07T17:59:03.357Z,14.82
2022-10-07T18:03:59.246Z,15.63
2022-10-07T18:08:53.115Z,14.73
2022-10-07T18:14:04.099Z,16.88
2022-10-07T18:18:59.169Z,16.73
2022-10-07T18:23:54.455Z,17.58
2022-10-07T18:28:48.212Z,17.85
2022-10-07T18:33:41.704Z,19.30
2022-10-07T18:38:38.989Z,19.55
2022-10-07T18:43:33.204Z,20.17
2022-10-07T18:48:26.462Z,19.83
2022-10-07T18:53:19.809Z,19.30
2022-10-07T18:58:14.512Z,20.33
2022-10-07T19:03:07.858Z,21.70
2022-10-07T19:08:01.135Z,19.38
2022-10-07T19:13:12.197Z,21.30
2022-10-07T19:18:07.499Z,18.90
2022-10-07T19:23:00.766Z,19.13
2022-10-07T19:27:54.126Z,19.35
2022-10-07T19:32:47.349Z,19.48
2022-10-07T19:37:42.435Z,20.55
2022-10-07T19:42:37.788Z,22.73
2022-10-07T19:47:34.678Z,21.42
2022-10-07T19:52:28.392Z,18.95
2022-10-07T19:57:23.191Z,18.77
2022-10-07T20:02:16.487Z,19.97
2022-10-07T20:07:10.408Z,19.92
2022-10-07T20:12:04.656Z,18.02
2022-10-07T20:16:59.378Z,17.55
2022-10-07T20:21:52.675Z,17.90
2022-10-07T20:26:46.441Z,16.70
2022-10-07T20:31:42.242Z,17.60
2022-10-07T20:36:41.361Z,15.88
2022-10-07T20:41:52.212Z,15.43
2022-10-07T20:46:45.605Z,14.57
2022-10-07T20:51:40.682Z,15.77
2022-10-07T20:56:34.664Z,15.97
2022-10-07T21:01:28.505Z,15.27
2022-10-07T21:06:21.838Z,14.48
2022-10-07T21:11:16.480Z,14.97
2022-10-07T21:16:09.880Z,15.10
2022-10-07T21:21:03.196Z,15.93
2022-10-07T21:26:02.511Z,15.07
2022-10-07T21:30:59.958Z,15.50
2022-10-07T21:35:53.314Z,14.73
2022-10-07T21:40:46.527Z,14.73
2022-10-07T21:45:41.374Z,14.70
2022-10-07T21:50:35.964Z,16.23
2022-10-07T21:55:29.467Z,16.33
2022-10-07T22:00:22.728Z,14.90
2022-10-07T22:05:16.176Z,15.43
2022-10-07T22:10:11.578Z,14.17
2022-10-07T22:15:05.458Z,14.77
2022-10-07T22:19:58.823Z,14.53
2022-10-07T22:24:52.126Z,14.53
2022-10-07T22:29:48.012Z,15.93
2022-10-07T22:34:58.946Z,16.00
2022-10-07T22:39:52.234Z,14.63
2022-10-07T22:44:46.847Z,15.37
2022-10-07T22:49:41.686Z,13.53
2022-10-07T22:54:34.991Z,13.87
2022-10-07T22:59:28.271Z,15.20
2022-10-07T23:04:22.951Z,14.70
2022-10-07T23:09:16.194Z,14.57
2022-10-07T23:14:09.701Z,15.77
2022-10-07T23:19:02.904Z,15.83
2022-10-07T23:24:05.977Z,14.97
2022-10-07T23:29:02.965Z,14.53
2022-10-07T23:33:58.150Z,14.87
2022-10-07T23:38:52.829Z,14.13
2022-10-07T23:43:49.901Z,14.23
2022-10-07T23:48:43.515Z,14.60
2022-10-07T23:53:37.007Z,14.70
2022-10-07T23:58:32.457Z,14.03
